Time;durP1;ratioP1;P1;durP2;ratioP2;P2;SDS_P1;SDS_P2;PMS_P1;PMS_P2;Temp;Humidity;BMP_temperature;BMP_pressure;BME280_temperature;BME280_humidity;BME280_pressure;Samples;Min_cycle;Max_cycle;Signal;HPM_P1;HPM_P2
2021/08/24 00:00:56;;;;;;;5.55;1.98;;;21.60;60.00;;;;;;5052748;28;20036;-66
2021/08/24 00:03:22;;;;;;;4.65;1.60;;;21.60;59.90;;;;;;5052845;28;20493;-66
2021/08/24 00:05:49;;;;;;;4.40;1.60;;;21.70;60.00;;;;;;5052678;28;20021;-67
2021/08/24 00:08:15;;;;;;;6.07;1.60;;;21.60;59.90;;;;;;5052610;28;20025;-66
2021/08/24 00:10:44;;;;;;;3.00;1.20;;;21.60;59.90;;;;;;5052898;28;20025;-66
2021/08/24 00:13:10;;;;;;;4.22;1.65;;;21.60;59.90;;;;;;5052618;28;20017;-66
2021/08/24 00:15:36;;;;;;;3.42;1.40;;;21.60;59.90;;;;;;5052736;28;20025;-66
2021/08/24 00:18:02;;;;;;;5.28;1.60;;;21.60;59.90;;;;;;5052533;28;20064;-67
2021/08/24 00:20:31;;;;;;;4.72;1.85;;;21.60;59.90;;;;;;5052573;28;20499;-67
2021/08/24 00:23:02;;;;;;;2.90;1.30;;;21.60;59.90;;;;;;5051211;28;20021;-66
2021/08/24 00:25:28;;;;;;;4.38;1.45;;;21.60;59.90;;;;;;5052603;28;20419;-67
2021/08/24 00:27:53;;;;;;;7.90;1.60;;;21.60;59.90;;;;;;5052448;28;20070;-66
2021/08/24 00:30:19;;;;;;;4.03;1.30;;;21.60;59.90;;;;;;5053003;28;20029;-67
2021/08/24 00:32:44;;;;;;;4.18;1.30;;;21.60;59.90;;;;;;5056408;28;20029;-67
2021/08/24 00:35:10;;;;;;;3.28;1.40;;;21.60;59.90;;;;;;5056209;28;20469;-67
2021/08/24 00:37:36;;;;;;;6.28;1.80;;;21.50;59.90;;;;;;5056207;28;20108;-66
2021/08/24 00:40:04;;;;;;;3.70;1.52;;;21.50;59.80;;;;;;5056291;28;20029;-66
2021/08/24 00:42:29;;;;;;;6.20;1.42;;;21.50;59.90;;;;;;5056274;28;20068;-66
2021/08/24 00:44:55;;;;;;;3.72;1.67;;;21.50;59.90;;;;;;5056505;28;20052;-66
2021/08/24 00:47:25;;;;;;;4.10;1.50;;;21.50;59.90;;;;;;5038261;28;20115;-67
2021/08/24 00:49:51;;;;;;;5.22;1.80;;;21.50;59.90;;;;;;5056100;28;20028;-67
2021/08/24 00:52:22;;;;;;;3.80;1.60;;;21.50;59.90;;;;;;5056025;28;20480;-66
2021/08/24 00:54:48;;;;;;;3.83;1.65;;;21.50;59.90;;;;;;5054807;28;20036;-67
2021/08/24 00:57:17;;;;;;;3.95;1.48;;;21.50;59.80;;;;;;5056050;28;20408;-67
2021/08/24 00:59:43;;;;;;;4.68;1.67;;;21.50;59.80;;;;;;5055940;28;20029;-67
2021/08/24 01:02:10;;;;;;;5.47;1.50;;;21.50;59.90;;;;;;5055825;28;20527;-67
2021/08/24 01:04:37;;;;;;;4.00;1.40;;;21.50;59.80;;;;;;5055743;28;20358;-67
2021/08/24 01:07:10;;;;;;;5.05;1.75;;;21.50;59.90;;;;;;5055677;28;20025;-67
2021/08/24 01:10:03;;;;;;;4.05;1.52;;;21.50;59.90;;;;;;5055666;28;20017;-66
2021/08/24 01:12:37;;;;;;;4.70;1.67;;;21.50;59.90;;;;;;5056160;28;20025;-67
2021/08/24 01:15:23;;;;;;;4.25;1.65;;;21.50;59.90;;;;;;5055749;28;20111;-67
2021/08/24 01:17:56;;;;;;;4.00;1.58;;;21.40;59.80;;;;;;5055072;28;20056;-66
2021/08/24 01:20:29;;;;;;;10.07;1.67;;;21.50;59.80;;;;;;5055500;28;20092;-66
2021/08/24 01:23:24;;;;;;;3.53;1.50;;;21.50;59.90;;;;;;5055412;28;20028;-67
2021/08/24 01:26:09;;;;;;;;;;;21.40;59.90;;;;;;5055860;28;20017;-66
2021/08/24 01:29:00;;;;;;;4.75;1.70;;;21.40;59.90;;;;;;5055586;28;19905;-67
2021/08/24 01:31:47;;;;;;;3.38;1.17;;;21.40;59.90;;;;;;5046807;28;20063;-67
2021/08/24 01:34:40;;;;;;;6.15;1.50;;;21.40;59.90;;;;;;5055221;28;20104;-67
2021/08/24 01:37:26;;;;;;;4.90;1.40;;;21.40;59.90;;;;;;5054968;28;20056;-67
2021/08/24 01:40:20;;;;;;;3.80;1.50;;;21.40;59.90;;;;;;5055215;28;20021;-67
2021/08/24 01:42:46;;;;;;;4.47;1.20;;;21.40;59.90;;;;;;5054050;28;20029;-67
2021/08/24 01:45:31;;;;;;;7.75;1.88;;;21.30;59.90;;;;;;5053874;28;20468;-66
2021/08/24 01:48:07;;;;;;;2.92;1.20;;;21.40;59.90;;;;;;5055137;28;20376;-67
2021/08/24 01:50:39;;;;;;;4.10;1.42;;;21.30;59.80;;;;;;5055234;28;20021;-66
2021/08/24 01:53:15;;;;;;;2.90;1.35;;;21.30;59.80;;;;;;5053658;28;20025;-66
2021/08/24 01:55:53;;;;;;;3.83;1.50;;;21.30;59.90;;;;;;5054982;28;20028;-66
2021/08/24 01:58:38;;;;;;;4.60;1.60;;;21.30;59.90;;;;;;5054782;28;20037;-67
2021/08/24 02:01:07;;;;;;;4.05;1.73;;;21.30;59.90;;;;;;5054791;28;20041;-67
2021/08/24 02:03:37;;;;;;;3.92;1.42;;;21.30;59.90;;;;;;5054716;28;20472;-67
2021/08/24 02:06:17;;;;;;;2.67;1.15;;;21.30;59.90;;;;;;5054683;28;20047;-67
2021/08/24 02:08:47;;;;;;;4.25;1.50;;;21.30;60.00;;;;;;5054704;28;20096;-67
2021/08/24 02:11:13;;;;;;;4.95;1.30;;;21.30;60.00;;;;;;5054836;28;20029;-66
2021/08/24 02:13:47;;;;;;;5.75;1.48;;;21.30;59.90;;;;;;5053310;28;20033;-67
2021/08/24 02:16:18;;;;;;;4.35;1.40;;;21.30;60.00;;;;;;5053269;28;20033;-66
2021/08/24 02:18:52;;;;;;;4.93;1.88;;;21.30;60.00;;;;;;5054383;28;20120;-68
2021/08/24 02:21:24;;;;;;;2.20;1.20;;;21.20;60.00;;;;;;5054444;28;20465;-67
2021/08/24 02:23:53;;;;;;;3.50;1.10;;;21.20;60.00;;;;;;5054383;28;20082;-66
2021/08/24 02:26:20;;;;;;;3.83;1.42;;;21.20;60.00;;;;;;5054467;28;20021;-66
2021/08/24 02:28:55;;;;;;;5.70;1.70;;;21.20;60.00;;;;;;5054609;28;20108;-66
2021/08/24 02:31:39;;;;;;;3.13;1.25;;;21.20;60.10;;;;;;5054397;28;20047;-67
2021/08/24 02:34:22;;;;;;;4.03;1.50;;;21.20;60.10;;;;;;5054303;28;20033;-66
2021/08/24 02:36:58;;;;;;;3.90;1.60;;;21.20;60.10;;;;;;5053899;28;20063;-67
2021/08/24 02:39:35;;;;;;;2.00;1.00;;;21.20;60.10;;;;;;5052885;28;20029;-66
2021/08/24 02:42:34;;;;;;;3.70;1.45;;;21.10;60.10;;;;;;5054122;28;20357;-67
2021/08/24 02:45:07;;;;;;;2.85;1.27;;;21.20;60.10;;;;;;5053814;28;20028;-67
2021/08/24 02:47:33;;;;;;;3.43;1.20;;;21.10;60.20;;;;;;5053884;28;20025;-67
2021/08/24 02:50:00;;;;;;;2.80;1.20;;;21.20;60.20;;;;;;5053827;28;20032;-67
2021/08/24 02:52:26;;;;;;;2.88;1.10;;;21.10;60.20;;;;;;5054057;28;20104;-67
2021/08/24 02:54:52;;;;;;;5.18;1.42;;;21.20;60.20;;;;;;5053557;28;20503;-67
2021/08/24 02:57:18;;;;;;;2.90;1.10;;;21.20;60.20;;;;;;5053615;28;20044;-66
2021/08/24 02:59:44;;;;;;;3.85;1.13;;;21.20;60.20;;;;;;5053815;28;20028;-67
2021/08/24 03:02:11;;;;;;;3.72;1.55;;;21.20;60.20;;;;;;5053460;28;20033;-66
2021/08/24 03:04:37;;;;;;;4.90;1.45;;;21.10;60.20;;;;;;5053457;28;20104;-67
2021/08/24 03:07:08;;;;;;;2.67;1.30;;;21.10;60.20;;;;;;5053394;28;20024;-67
2021/08/24 03:09:35;;;;;;;3.08;1.17;;;21.10;60.20;;;;;;5052158;28;20480;-66
2021/08/24 03:12:11;;;;;;;3.35;1.55;;;21.10;60.20;;;;;;5053553;28;20028;-67
2021/08/24 03:15:12;;;;;;;2.83;1.33;;;21.10;60.20;;;;;;5053498;28;20035;-66
2021/08/24 03:17:45;;;;;;;3.20;1.23;;;21.10;60.20;;;;;;5048206;28;20037;-67
2021/08/24 03:20:14;;;;;;;2.70;1.30;;;21.10;60.30;;;;;;5053236;28;20036;-67
2021/08/24 03:22:41;;;;;;;4.90;1.45;;;21.10;60.30;;;;;;5053218;28;20100;-67
2021/08/24 03:25:08;;;;;;;3.40;1.30;;;21.10;60.30;;;;;;5051868;28;20498;-68
2021/08/24 03:27:40;;;;;;;2.55;1.20;;;21.10;60.30;;;;;;5053048;28;20033;-67
2021/08/24 03:30:15;;;;;;;2.95;1.20;;;21.10;60.30;;;;;;5052974;28;20033;-67
2021/08/24 03:32:42;;;;;;;5.03;1.70;;;21.10;60.40;;;;;;5053100;28;20075;-66
2021/08/24 03:35:09;;;;;;;2.72;1.30;;;21.10;60.30;;;;;;5052837;28;20036;-66
2021/08/24 03:37:35;;;;;;;3.67;1.52;;;21.10;60.40;;;;;;5052861;28;20120;-66
2021/08/24 03:40:01;;;;;;;2.67;1.38;;;21.00;60.40;;;;;;5052928;28;20124;-66
2021/08/24 03:42:27;;;;;;;2.47;1.05;;;21.00;60.40;;;;;;5052871;28;20066;-66
2021/08/24 03:44:52;;;;;;;3.70;1.50;;;21.00;60.40;;;;;;5052901;28;20424;-65
2021/08/24 03:47:18;;;;;;;4.13;1.23;;;21.00;60.40;;;;;;5052822;28;20040;-66
2021/08/24 03:49:44;;;;;;;2.63;1.10;;;21.00;60.40;;;;;;5052787;28;20025;-66
2021/08/24 03:52:10;;;;;;;3.28;1.33;;;21.00;60.40;;;;;;5052908;28;20039;-66
2021/08/24 03:54:35;;;;;;;3.45;1.38;;;21.00;60.40;;;;;;5052769;28;20405;-66
2021/08/24 03:57:01;;;;;;;4.47;1.50;;;21.00;60.40;;;;;;5051425;28;20151;-66
2021/08/24 03:59:27;;;;;;;6.60;1.52;;;21.00;60.50;;;;;;5052752;28;20032;-66
2021/08/24 04:01:53;;;;;;;3.22;1.20;;;21.00;60.50;;;;;;5051346;28;20025;-66
2021/08/24 04:04:18;;;;;;;4.30;1.40;;;21.00;60.60;;;;;;5052652;28;20024;-66
2021/08/24 04:06:44;;;;;;;3.30;1.40;;;20.90;60.60;;;;;;5057932;28;20029;-66
2021/08/24 04:09:09;;;;;;;3.20;1.35;;;21.00;60.60;;;;;;5059327;28;20167;-66
2021/08/24 04:11:35;;;;;;;4.85;1.73;;;21.00;60.60;;;;;;5059322;28;20032;-66
2021/08/24 04:14:00;;;;;;;4.10;1.40;;;21.00;60.60;;;;;;5059214;28;20102;-66
2021/08/24 04:16:26;;;;;;;3.83;1.63;;;21.00;60.60;;;;;;5059378;28;20029;-66
2021/08/24 04:18:52;;;;;;;4.25;1.50;;;21.00;60.60;;;;;;5059349;28;20245;-66
2021/08/24 04:21:19;;;;;;;3.17;1.60;;;20.90;60.70;;;;;;5057856;28;20021;-66
2021/08/24 04:23:46;;;;;;;2.85;1.10;;;20.90;60.70;;;;;;5059131;28;20196;-66
2021/08/24 04:26:13;;;;;;;3.63;1.45;;;20.90;60.70;;;;;;5059110;28;20029;-66
2021/08/24 04:28:38;;;;;;;4.30;1.33;;;20.90;60.70;;;;;;5057822;28;20485;-66
2021/08/24 04:31:06;;;;;;;3.60;1.38;;;20.90;60.70;;;;;;5059076;28;20036;-66
2021/08/24 04:33:33;;;;;;;3.47;1.40;;;20.90;60.70;;;;;;5059005;28;20426;-66
2021/08/24 04:35:59;;;;;;;4.75;1.42;;;20.90;60.80;;;;;;5059054;28;20052;-66
2021/08/24 04:38:24;;;;;;;3.75;1.40;;;20.90;60.80;;;;;;5059012;28;20086;-66
2021/08/24 04:40:52;;;;;;;4.97;1.30;;;20.80;60.80;;;;;;5059041;28;20039;-66
2021/08/24 04:43:18;;;;;;;2.83;1.38;;;20.80;60.80;;;;;;5058940;28;20056;-66
2021/08/24 04:45:44;;;;;;;4.72;1.67;;;20.80;60.90;;;;;;5058979;28;20059;-66
2021/08/24 04:48:09;;;;;;;2.75;1.30;;;20.80;60.80;;;;;;5059014;28;20060;-66
2021/08/24 04:50:35;;;;;;;3.42;1.38;;;20.80;60.90;;;;;;5059001;28;20483;-66
2021/08/24 04:53:01;;;;;;;3.97;1.40;;;20.80;60.90;;;;;;5059002;28;20025;-66
2021/08/24 04:55:26;;;;;;;4.45;1.42;;;20.80;60.80;;;;;;5057610;28;20376;-66
2021/08/24 04:57:52;;;;;;;3.78;1.38;;;20.80;60.80;;;;;;5058865;28;20048;-65
2021/08/24 05:00:18;;;;;;;3.25;1.27;;;20.80;60.80;;;;;;5058797;28;20033;-66
2021/08/24 05:02:43;;;;;;;2.92;1.23;;;20.80;60.80;;;;;;5058830;28;20033;-65
2021/08/24 05:05:09;;;;;;;3.40;1.20;;;20.80;60.90;;;;;;5058857;28;20025;-66
2021/08/24 05:07:34;;;;;;;6.70;1.48;;;20.70;60.80;;;;;;5058705;28;20040;-66
2021/08/24 05:10:03;;;;;;;3.47;1.45;;;20.80;60.80;;;;;;5058755;28;20031;-66
2021/08/24 05:12:29;;;;;;;3.03;1.38;;;20.80;60.80;;;;;;5058637;28;20025;-66
2021/08/24 05:14:54;;;;;;;2.67;1.10;;;20.70;60.90;;;;;;5058864;28;20039;-66
2021/08/24 05:17:20;;;;;;;4.22;1.30;;;20.80;60.90;;;;;;5057170;28;20064;-66
2021/08/24 05:19:45;;;;;;;2.78;1.27;;;20.80;60.90;;;;;;5055502;28;20464;-66
2021/08/24 05:22:11;;;;;;;3.20;1.40;;;20.80;60.80;;;;;;5055468;28;20029;-66
2021/08/24 05:24:37;;;;;;;2.60;1.27;;;20.80;60.80;;;;;;5055454;28;20029;-66
2021/08/24 05:27:04;;;;;;;3.50;1.50;;;20.70;60.80;;;;;;5055389;28;20385;-66
2021/08/24 05:29:29;;;;;;;3.80;1.40;;;20.70;60.80;;;;;;5055417;28;20067;-66
2021/08/24 05:31:55;;;;;;;3.72;1.50;;;20.80;60.80;;;;;;5054072;28;20381;-65
2021/08/24 05:34:20;;;;;;;3.13;1.33;;;20.70;60.80;;;;;;5055324;28;20056;-66
2021/08/24 05:36:46;;;;;;;2.38;1.20;;;20.70;60.80;;;;;;5053704;28;20041;-66
2021/08/24 05:39:11;;;;;;;3.58;1.60;;;20.70;60.80;;;;;;5055100;28;20103;-66
2021/08/24 05:41:39;;;;;;;3.42;1.40;;;20.80;60.80;;;;;;5055034;28;20029;-66
2021/08/24 05:44:05;;;;;;;2.70;1.25;;;20.70;60.70;;;;;;5055062;28;20093;-66
2021/08/24 05:46:31;;;;;;;3.55;1.40;;;20.80;60.70;;;;;;5054979;28;20029;-66
2021/08/24 05:48:56;;;;;;;2.28;1.10;;;20.80;60.70;;;;;;5054952;28;20043;-66
2021/08/24 05:51:23;;;;;;;3.03;1.42;;;20.70;60.70;;;;;;5054908;28;20037;-66
2021/08/24 05:53:49;;;;;;;3.13;1.27;;;20.70;60.70;;;;;;5054878;28;20377;-66
2021/08/24 05:56:19;;;;;;;3.72;1.50;;;20.70;60.70;;;;;;5054753;28;20412;-66
2021/08/24 05:58:45;;;;;;;5.43;1.35;;;20.70;60.70;;;;;;5054630;28;20033;-66
2021/08/24 06:01:21;;;;;;;3.22;1.50;;;20.80;60.60;;;;;;5053369;28;20033;-65
2021/08/24 06:03:47;;;;;;;5.10;2.53;;;20.80;60.60;;;;;;5053430;28;20063;-66
2021/08/24 06:06:25;;;;;;;2.80;1.17;;;20.80;60.60;;;;;;5054577;28;20462;-66
2021/08/24 06:08:50;;;;;;;2.70;1.33;;;20.70;60.60;;;;;;5054447;28;20067;-66
2021/08/24 06:11:17;;;;;;;3.85;1.55;;;20.70;60.60;;;;;;5053146;28;20018;-66
2021/08/24 06:13:43;;;;;;;2.50;1.08;;;20.70;60.50;;;;;;5054487;28;20029;-66
2021/08/24 06:16:08;;;;;;;2.80;1.15;;;20.80;60.60;;;;;;5054522;28;20472;-66
2021/08/24 06:18:35;;;;;;;3.53;1.40;;;20.70;60.60;;;;;;5054480;28;20060;-67
2021/08/24 06:21:01;;;;;;;4.25;1.83;;;20.80;60.50;;;;;;5054290;28;20108;-66
2021/08/24 06:23:27;;;;;;;5.03;1.92;;;20.70;60.40;;;;;;5054188;28;20025;-66
2021/08/24 06:25:52;;;;;;;3.70;1.50;;;20.70;60.50;;;;;;5054197;28;20021;-67
2021/08/24 06:28:18;;;;;;;4.13;1.58;;;20.80;60.40;;;;;;5053556;28;20492;-66
2021/08/24 06:30:44;;;;;;;4.05;1.58;;;20.80;60.40;;;;;;5054057;28;20017;-66
2021/08/24 06:33:10;;;;;;;5.13;1.60;;;20.80;60.40;;;;;;5054141;28;20036;-66
2021/08/24 06:35:35;;;;;;;2.97;1.30;;;20.80;60.40;;;;;;5053845;28;20045;-66
2021/08/24 06:38:01;;;;;;;5.50;1.77;;;20.80;60.40;;;;;;5053805;28;20523;-66
2021/08/24 06:40:26;;;;;;;2.72;1.05;;;20.80;60.40;;;;;;5053832;28;20025;-63
2021/08/24 06:42:53;;;;;;;7.85;1.50;;;20.80;60.30;;;;;;5062713;28;20070;-67
2021/08/24 06:45:26;;;;;;;6.90;1.80;;;20.80;60.30;;;;;;5073046;28;20029;-65
2021/08/24 06:47:51;;;;;;;4.68;2.00;;;20.70;59.60;;;;;;5073189;28;20028;-67
2021/08/24 06:50:18;;;;;;;6.10;2.15;;;20.50;60.10;;;;;;5073355;28;20021;-67
2021/08/24 06:52:44;;;;;;;6.55;2.42;;;20.40;60.20;;;;;;5073383;28;20037;-66
2021/08/24 06:55:10;;;;;;;4.72;2.13;;;20.40;60.10;;;;;;5062673;28;20082;-67
2021/08/24 06:57:37;;;;;;;5.07;1.92;;;20.40;60.00;;;;;;5052856;28;20103;-66
2021/08/24 07:00:05;;;;;;;5.47;2.22;;;20.30;59.90;;;;;;5053300;28;20078;-66
2021/08/24 07:02:31;;;;;;;5.72;1.98;;;20.30;60.00;;;;;;5052755;28;20059;-67
2021/08/24 07:04:57;;;;;;;5.63;2.42;;;20.30;59.70;;;;;;5051155;28;20029;-67
2021/08/24 07:07:22;;;;;;;5.28;2.17;;;20.40;59.70;;;;;;5053339;28;20017;-67
2021/08/24 07:09:48;;;;;;;3.65;1.70;;;20.30;59.50;;;;;;5053235;28;20499;-64
2021/08/24 07:12:14;;;;;;;5.63;2.30;;;20.40;59.50;;;;;;5052867;28;20108;-64
2021/08/24 07:14:39;;;;;;;5.00;1.65;;;20.40;59.20;;;;;;5052489;28;20079;-67
2021/08/24 07:17:05;;;;;;;7.20;2.20;;;20.30;59.60;;;;;;5052919;28;20029;-68
2021/08/24 07:19:30;;;;;;;6.75;1.95;;;20.30;59.40;;;;;;5053014;28;20562;-68
2021/08/24 07:21:56;;;;;;;5.22;2.03;;;20.40;59.10;;;;;;5052950;28;20365;-69
2021/08/24 07:24:21;;;;;;;4.55;1.90;;;20.50;58.90;;;;;;5052477;28;20104;-65
2021/08/24 07:26:48;;;;;;;3.55;1.60;;;20.50;59.20;;;;;;5052747;28;20021;-65
2021/08/24 07:29:14;;;;;;;4.15;1.63;;;20.60;59.20;;;;;;5052791;28;20555;-66
2021/08/24 07:31:39;;;;;;;3.22;1.60;;;20.70;59.30;;;;;;5052825;28;20112;-66
2021/08/24 07:34:08;;;;;;;4.63;1.45;;;20.80;59.20;;;;;;5052112;28;20025;-68
2021/08/24 07:36:34;;;;;;;3.55;1.48;;;20.80;59.30;;;;;;5052425;28;20373;-68
2021/08/24 07:39:01;;;;;;;2.90;1.23;;;20.80;59.00;;;;;;5051572;28;20075;-68
2021/08/24 07:41:26;;;;;;;3.50;1.60;;;20.90;58.90;;;;;;5051555;28;20017;-65
2021/08/24 07:43:52;;;;;;;4.60;1.67;;;20.90;58.80;;;;;;5051946;28;20094;-64
2021/08/24 07:46:17;;;;;;;3.33;1.27;;;20.90;58.80;;;;;;5052496;28;20108;-68
2021/08/24 07:48:43;;;;;;;6.63;1.65;;;21.00;58.70;;;;;;5052087;28;20040;-65
2021/08/24 07:51:08;;;;;;;3.20;1.20;;;21.00;58.70;;;;;;5050199;28;20029;-68
2021/08/24 07:53:34;;;;;;;3.55;1.50;;;21.00;58.60;;;;;;5051507;28;20128;-65
2021/08/24 07:56:02;;;;;;;4.35;1.70;;;21.00;58.50;;;;;;5050768;28;20429;-65
2021/08/24 07:58:27;;;;;;;3.85;1.30;;;21.00;58.50;;;;;;5052142;28;20037;-65
2021/08/24 08:00:53;;;;;;;3.70;1.33;;;21.00;58.60;;;;;;5051086;28;20557;-64
2021/08/24 08:03:20;;;;;;;4.35;1.55;;;21.00;58.60;;;;;;5051363;28;20020;-64
2021/08/24 08:05:46;;;;;;;3.88;1.48;;;21.00;58.60;;;;;;5052410;28;20032;-64
2021/08/24 08:08:11;;;;;;;2.72;1.30;;;21.00;58.50;;;;;;5051917;28;20029;-66
2021/08/24 08:10:37;;;;;;;3.35;1.30;;;21.10;58.50;;;;;;5048075;28;20029;-67
2021/08/24 08:13:03;;;;;;;3.65;1.30;;;21.10;58.50;;;;;;5051216;28;20029;-66
2021/08/24 08:15:31;;;;;;;3.50;1.27;;;21.10;58.40;;;;;;5052071;28;20028;-65
2021/08/24 08:17:58;;;;;;;4.78;1.83;;;21.10;58.60;;;;;;5051778;28;20044;-64
2021/08/24 08:20:24;;;;;;;3.70;1.38;;;21.10;58.50;;;;;;5052050;28;20108;-68
2021/08/24 08:22:49;;;;;;;2.90;1.20;;;21.10;58.40;;;;;;5052259;28;20108;-64
2021/08/24 08:25:16;;;;;;;4.25;1.20;;;21.10;58.40;;;;;;5051905;28;20361;-64
2021/08/24 08:27:41;;;;;;;5.10;1.50;;;21.10;58.50;;;;;;5051606;28;20469;-64
2021/08/24 08:30:09;;;;;;;2.55;1.27;;;21.20;58.40;;;;;;5051880;28;20104;-65
2021/08/24 08:32:38;;;;;;;4.20;1.60;;;21.20;58.30;;;;;;5051884;28;20112;-65
2021/08/24 08:35:05;;;;;;;3.97;1.30;;;21.20;58.30;;;;;;5051288;28;20476;-65
2021/08/24 08:37:31;;;;;;;3.17;1.30;;;21.20;58.30;;;;;;5050080;28;20036;-64
2021/08/24 08:39:56;;;;;;;4.78;1.58;;;21.20;58.30;;;;;;5051865;28;20469;-65
2021/08/24 08:42:46;;;;;;;4.43;1.67;;;21.20;58.20;;;;;;5051510;28;20025;-66
2021/08/24 08:45:23;;;;;;;6.45;1.70;;;21.20;58.30;;;;;;5049053;28;20025;-65
2021/08/24 08:48:16;;;;;;;4.28;1.55;;;21.20;58.10;;;;;;5051544;28;20079;-65
2021/08/24 08:50:51;;;;;;;3.72;1.33;;;21.20;58.30;;;;;;5051091;28;20064;-65
2021/08/24 08:53:39;;;;;;;3.80;1.95;;;21.20;58.20;;;;;;5052862;28;20541;-65
2021/08/24 08:56:28;;;;;;;3.78;1.40;;;21.20;58.40;;;;;;5055243;28;20079;-65
2021/08/24 08:59:02;;;;;;;2.75;1.40;;;21.20;58.40;;;;;;5055863;28;20037;-67
2021/08/24 09:01:57;;;;;;;2.53;1.23;;;21.20;58.20;;;;;;5055815;28;20025;-67
2021/08/24 09:04:41;;;;;;;3.53;1.55;;;21.20;58.20;;;;;;5054675;28;20473;-63
2021/08/24 09:07:17;;;;;;;3.58;1.23;;;21.20;58.10;;;;;;5053051;28;20103;-63
2021/08/24 09:09:43;;;;;;;3.35;1.40;;;21.20;58.10;;;;;;5053001;28;20021;-63
2021/08/24 09:12:10;;;;;;;4.05;1.35;;;21.30;58.10;;;;;;5054946;28;20028;-65
2021/08/24 09:14:47;;;;;;;4.15;1.50;;;21.20;58.10;;;;;;5054458;28;20032;-66
2021/08/24 09:17:38;;;;;;;3.55;1.23;;;21.30;58.10;;;;;;5054481;28;20033;-66
2021/08/24 09:20:24;;;;;;;2.88;1.30;;;21.30;58.10;;;;;;5052361;28;20029;-66
2021/08/24 09:22:51;;;;;;;4.03;1.35;;;21.30;58.00;;;;;;5054881;28;20104;-67
2021/08/24 09:25:23;;;;;;;3.40;1.40;;;21.20;57.80;;;;;;5055334;28;20362;-69
2021/08/24 09:28:03;;;;;;;3.70;1.40;;;21.30;57.80;;;;;;5055356;28;20550;-65
2021/08/24 09:30:29;;;;;;;3.55;1.60;;;21.30;57.80;;;;;;5054918;28;20416;-64
2021/08/24 09:33:02;;;;;;;3.92;1.70;;;21.30;57.70;;;;;;5054126;28;20033;-65
2021/08/24 09:35:42;;;;;;;3.33;1.38;;;21.30;57.80;;;;;;5054761;28;20052;-66
2021/08/24 09:38:29;;;;;;;3.28;1.52;;;21.30;57.60;;;;;;5054808;28;20064;-66
2021/08/24 09:40:58;;;;;;;3.60;1.42;;;21.30;57.50;;;;;;5054514;28;20025;-64
2021/08/24 09:43:27;;;;;;;5.05;1.58;;;21.30;57.40;;;;;;5053552;28;20090;-67
2021/08/24 09:46:01;;;;;;;3.33;0.98;;;21.30;57.30;;;;;;5053452;28;20473;-68
2021/08/24 09:48:28;;;;;;;;;;;21.30;57.20;;;;;;5054970;28;20021;-66
2021/08/24 09:50:53;;;;;;;3.42;1.30;;;21.40;57.30;;;;;;5053309;28;19911;-66
2021/08/24 09:53:33;;;;;;;4.90;1.55;;;21.40;57.00;;;;;;5053786;28;20032;-63
2021/08/24 09:56:05;;;;;;;3.55;1.40;;;21.30;57.00;;;;;;5054396;28;20090;-64
2021/08/24 09:58:35;;;;;;;5.50;1.70;;;21.30;56.90;;;;;;5054258;28;20033;-65
2021/08/24 10:01:05;;;;;;;5.22;1.92;;;21.30;56.90;;;;;;5054513;28;20096;-66
2021/08/24 10:03:42;;;;;;;2.65;1.30;;;21.40;56.80;;;;;;5052934;28;20029;-65
2021/08/24 10:06:25;;;;;;;4.13;1.65;;;21.40;56.20;;;;;;5053119;28;20109;-65
2021/08/24 10:08:55;;;;;;;3.35;1.33;;;21.40;56.70;;;;;;5053957;28;20025;-66
2021/08/24 10:11:32;;;;;;;3.88;1.70;;;21.40;56.50;;;;;;5054200;28;20053;-65
2021/08/24 10:14:20;;;;;;;3.95;1.55;;;21.40;56.40;;;;;;5053499;28;20049;-66
2021/08/24 10:16:48;;;;;;;4.97;1.27;;;21.40;56.50;;;;;;5054204;28;20029;-64
2021/08/24 10:19:21;;;;;;;3.75;1.38;;;21.50;56.40;;;;;;5054252;28;20128;-66
2021/08/24 10:21:50;;;;;;;3.67;1.40;;;21.50;56.30;;;;;;5052799;28;20075;-66
2021/08/24 10:24:27;;;;;;;2.53;1.42;;;21.50;56.40;;;;;;5053280;28;20033;-65
2021/08/24 10:26:56;;;;;;;4.68;1.40;;;21.50;56.70;;;;;;5054051;28;20071;-66
2021/08/24 10:29:27;;;;;;;4.05;1.65;;;21.50;56.30;;;;;;5053833;28;20400;-66
2021/08/24 10:31:58;;;;;;;3.88;1.27;;;21.50;55.40;;;;;;5053962;28;20027;-65
2021/08/24 10:34:37;;;;;;;3.70;1.42;;;21.50;55.80;;;;;;5053206;28;20028;-67
2021/08/24 10:37:36;;;;;;;3.97;1.52;;;21.50;56.00;;;;;;5053556;28;20048;-66
2021/08/24 10:40:07;;;;;;;4.57;1.58;;;21.50;55.90;;;;;;5053793;28;20025;-66
2021/08/24 10:42:34;;;;;;;4.53;1.67;;;21.50;56.30;;;;;;5053509;28;20457;-65
2021/08/24 10:45:03;;;;;;;3.50;1.52;;;21.50;56.10;;;;;;5052787;28;20108;-66
2021/08/24 10:47:53;;;;;;;3.22;1.25;;;21.50;56.20;;;;;;5053387;28;20021;-66
2021/08/24 10:50:47;;;;;;;3.50;1.73;;;21.60;56.10;;;;;;5052247;28;20032;-68
2021/08/24 10:53:35;;;;;;;5.47;1.88;;;21.60;56.20;;;;;;5052903;28;20041;-68
2021/08/24 10:56:19;;;;;;;4.05;1.60;;;21.60;56.10;;;;;;5053042;28;20036;-66
2021/08/24 10:58:51;;;;;;;;;;;21.60;56.10;;;;;;5053909;28;20036;-67
2021/08/24 11:01:27;;;;;;;4.18;1.38;;;21.60;56.00;;;;;;5051903;28;20352;-65
2021/08/24 11:04:24;;;;;;;3.88;1.63;;;21.70;55.80;;;;;;5052773;28;20059;-66
2021/08/24 11:07:38;;;;;;;6.72;1.50;;;21.70;55.90;;;;;;5053118;28;20033;-68
2021/08/24 11:10:13;;;;;;;3.00;1.48;;;21.70;55.90;;;;;;5035296;28;20051;-66
2021/08/24 11:13:12;;;;;;;2.92;1.17;;;21.70;55.80;;;;;;5053059;28;20089;-68
2021/08/24 11:16:13;;;;;;;3.15;1.30;;;21.70;55.90;;;;;;5051517;28;20429;-68
2021/08/24 11:18:45;;;;;;;3.38;1.60;;;21.80;55.60;;;;;;5039449;28;20128;-69
2021/08/24 11:21:13;;;;;;;5.15;1.83;;;21.80;55.50;;;;;;5052869;28;20056;-67
2021/08/24 11:24:11;;;;;;;3.53;1.70;;;21.90;55.50;;;;;;5052323;28;20461;-66
2021/08/24 11:26:45;;;;;;;3.47;1.33;;;21.90;55.50;;;;;;5052579;28;20080;-69
2021/08/24 11:29:35;;;;;;;5.47;1.63;;;22.00;55.40;;;;;;5052846;28;20556;-69
2021/08/24 11:32:16;;;;;;;3.65;1.58;;;22.00;55.30;;;;;;5052716;28;20021;-67
2021/08/24 11:34:51;;;;;;;4.90;1.83;;;22.00;55.30;;;;;;5051923;28;20052;-67
2021/08/24 11:37:28;;;;;;;2.95;1.45;;;22.00;55.10;;;;;;5052495;28;20400;-68
2021/08/24 11:39:59;;;;;;;4.15;1.67;;;22.00;55.00;;;;;;5052669;28;20025;-70
2021/08/24 11:42:44;;;;;;;5.25;1.92;;;22.10;54.90;;;;;;5052797;28;20024;-67
2021/08/24 11:45:20;;;;;;;6.55;1.83;;;22.10;54.90;;;;;;5051743;28;20083;-67
2021/08/24 11:47:54;;;;;;;3.90;1.80;;;22.20;54.80;;;;;;5052812;28;20103;-68
2021/08/24 11:50:32;;;;;;;3.72;1.77;;;22.20;54.50;;;;;;5051250;28;20037;-66
2021/08/24 11:53:04;;;;;;;3.67;1.50;;;22.20;54.60;;;;;;5051747;28;20039;-67
2021/08/24 11:55:38;;;;;;;3.70;1.52;;;22.30;54.50;;;;;;5052287;28;20025;-67
2021/08/24 11:58:22;;;;;;;3.42;1.50;;;22.30;54.40;;;;;;5052290;28;20052;-67
2021/08/24 12:00:55;;;;;;;3.83;1.60;;;22.30;54.20;;;;;;5052587;28;20040;-68
2021/08/24 12:03:23;;;;;;;4.25;1.65;;;22.40;54.10;;;;;;5052229;28;20025;-69
2021/08/24 12:06:00;;;;;;;3.15;1.45;;;22.50;53.90;;;;;;5051007;28;20025;-69
2021/08/24 12:08:28;;;;;;;3.55;1.50;;;22.50;53.80;;;;;;5052521;28;20025;-69
2021/08/24 12:11:05;;;;;;;3.20;1.50;;;22.50;53.70;;;;;;5052508;28;20039;-70
2021/08/24 12:13:37;;;;;;;4.35;1.50;;;22.60;53.60;;;;;;5051052;28;20055;-71
2021/08/24 12:16:31;;;;;;;3.35;1.60;;;22.70;53.50;;;;;;5051027;28;20423;-69
2021/08/24 12:19:05;;;;;;;6.88;1.77;;;22.70;53.40;;;;;;5046697;28;20045;-70
2021/08/24 12:21:37;;;;;;;5.00;1.55;;;22.80;53.30;;;;;;5052241;28;20032;-70
2021/08/24 12:24:24;;;;;;;2.97;1.27;;;22.80;53.10;;;;;;5052048;28;20025;-70
2021/08/24 12:26:52;;;;;;;6.32;1.45;;;22.70;53.30;;;;;;5053474;28;20031;-69
2021/08/24 12:29:34;;;;;;;4.50;1.70;;;22.80;53.30;;;;;;5056378;28;20029;-70
2021/08/24 12:32:18;;;;;;;3.55;1.50;;;22.80;53.20;;;;;;5056209;28;20028;-70
2021/08/24 12:34:52;;;;;;;2.97;1.38;;;22.80;53.30;;;;;;5056237;28;20025;-70
2021/08/24 12:37:18;;;;;;;4.47;1.60;;;22.80;53.30;;;;;;5054668;28;20399;-70
2021/08/24 12:39:48;;;;;;;3.90;1.67;;;22.80;53.30;;;;;;5056064;28;20043;-70
2021/08/24 12:42:32;;;;;;;5.53;1.90;;;22.80;53.30;;;;;;5056298;28;20025;-70
2021/08/24 12:45:01;;;;;;;4.88;1.77;;;22.80;53.40;;;;;;5056483;28;20021;-70
2021/08/24 12:47:41;;;;;;;3.22;1.30;;;22.90;53.40;;;;;;5056109;28;20025;-70
2021/08/24 12:50:07;;;;;;;4.20;1.65;;;22.90;53.30;;;;;;5055919;28;20029;-70
2021/08/24 12:52:38;;;;;;;3.20;1.50;;;22.90;53.20;;;;;;5054574;28;20385;-70
2021/08/24 12:55:29;;;;;;;3.35;1.30;;;22.90;53.20;;;;;;5055911;28;20029;-70
2021/08/24 12:58:22;;;;;;;3.60;1.40;;;22.90;53.30;;;;;;5055706;28;20116;-70
2021/08/24 13:01:11;;;;;;;3.00;1.23;;;23.00;53.30;;;;;;5055972;28;20017;-70
2021/08/24 13:03:39;;;;;;;2.95;1.30;;;23.00;53.10;;;;;;5055865;28;20500;-70
2021/08/24 13:06:27;;;;;;;3.92;1.40;;;23.00;52.90;;;;;;5055687;28;20025;-70
2021/08/24 13:09:15;;;;;;;3.95;1.52;;;23.00;53.10;;;;;;5055659;28;20372;-70
2021/08/24 13:11:41;;;;;;;4.68;1.70;;;23.00;53.10;;;;;;5055591;28;20024;-70